Time;durP1;ratioP1;P1;durP2;ratioP2;P2;SDS_P1;SDS_P2;PMS_P1;PMS_P2;Temp;Humidity;BMP_temperature;BMP_pressure;BME280_temperature;BME280_humidity;BME280_pressure;Samples;Min_cycle;Max_cycle;Signal;HPM_P1;HPM_P2
2022/01/05 00:02:29;;;;;;;1.90;1.77;;;8.00;99.90;;;;;;6147036;23;20198;-78
2022/01/05 00:05:00;;;;;;;2.15;2.05;;;8.00;99.90;;;;;;6149355;23;20183;-76
2022/01/05 00:07:31;;;;;;;1.90;1.80;;;8.00;99.90;;;;;;6148185;23;20189;-76
2022/01/05 00:10:02;;;;;;;2.97;2.35;;;8.00;99.90;;;;;;6146488;23;20302;-66
2022/01/05 00:12:34;;;;;;;3.03;2.08;;;8.00;99.90;;;;;;6149091;23;20191;-64
2022/01/05 00:15:06;;;;;;;2.80;1.88;;;7.90;99.90;;;;;;6149032;23;20203;-69
2022/01/05 00:17:37;;;;;;;1.88;1.77;;;7.90;99.90;;;;;;6147265;23;20191;-69
2022/01/05 00:20:09;;;;;;;2.15;2.05;;;7.90;99.90;;;;;;6145109;23;20278;-70
2022/01/05 00:22:40;;;;;;;2.22;2.03;;;7.90;99.90;;;;;;6146436;23;20247;-70
2022/01/05 00:25:12;;;;;;;3.38;3.08;;;7.90;99.90;;;;;;6148765;23;20267;-70
2022/01/05 00:27:44;;;;;;;4.50;1.88;;;7.80;99.90;;;;;;6146380;23;20314;-70
2022/01/05 00:30:15;;;;;;;2.03;1.65;;;7.90;99.90;;;;;;6148914;23;20496;-70
2022/01/05 00:32:46;;;;;;;3.55;2.58;;;7.90;99.90;;;;;;6146200;23;20187;-70
2022/01/05 00:35:17;;;;;;;2.72;1.83;;;8.00;99.90;;;;;;6144515;23;20225;-69
2022/01/05 00:37:48;;;;;;;1.30;1.20;;;8.00;99.90;;;;;;6144488;23;20525;-70
2022/01/05 00:40:18;;;;;;;2.30;1.48;;;8.00;99.90;;;;;;6146601;23;20527;-70
2022/01/05 00:42:51;;;;;;;2.85;1.42;;;8.00;99.90;;;;;;6150437;23;20183;-70
2022/01/05 00:45:22;;;;;;;1.40;1.30;;;8.00;99.90;;;;;;6148358;23;20183;-68
2022/01/05 00:47:53;;;;;;;0.85;0.85;;;8.00;99.90;;;;;;6148397;23;20205;-67
2022/01/05 00:50:24;;;;;;;1.20;1.10;;;8.10;99.90;;;;;;6144879;23;20183;-69
2022/01/05 00:53:00;;;;;;;2.15;1.50;;;8.10;99.90;;;;;;6150831;23;20227;-69
2022/01/05 00:55:31;;;;;;;1.27;1.17;;;8.10;99.90;;;;;;6148456;23;20702;-67
2022/01/05 00:58:03;;;;;;;1.35;1.13;;;8.00;99.90;;;;;;6148288;23;20385;-67
2022/01/05 01:00:34;;;;;;;1.58;1.30;;;8.00;99.90;;;;;;6148079;23;20511;-68
2022/01/05 01:03:05;;;;;;;1.73;1.33;;;8.00;99.90;;;;;;6147623;23;20604;-67
2022/01/05 01:05:37;;;;;;;1.40;1.10;;;7.90;99.90;;;;;;6149308;23;20183;-68
2022/01/05 01:08:07;;;;;;;1.52;1.35;;;7.90;99.90;;;;;;6146390;23;20623;-68
2022/01/05 01:10:39;;;;;;;3.80;1.63;;;8.00;99.90;;;;;;6145959;23;20712;-68
2022/01/05 01:13:14;;;;;;;1.63;1.52;;;7.90;99.90;;;;;;6150425;23;20190;-70
2022/01/05 01:15:45;;;;;;;1.55;1.45;;;7.90;99.90;;;;;;6148238;23;20597;-69
2022/01/05 01:18:17;;;;;;;1.80;1.70;;;7.90;99.90;;;;;;6143682;23;20195;-69
2022/01/05 01:20:49;;;;;;;2.80;1.95;;;7.90;99.90;;;;;;6143494;23;20278;-69
2022/01/05 01:23:22;;;;;;;1.80;1.70;;;7.90;99.90;;;;;;6149059;23;20194;-68
2022/01/05 01:25:53;;;;;;;2.88;1.95;;;8.00;99.90;;;;;;6147080;23;20183;-69
2022/01/05 01:28:25;;;;;;;1.77;1.67;;;8.00;99.90;;;;;;6117776;23;20262;-70
2022/01/05 01:30:56;;;;;;;2.22;1.95;;;8.00;99.90;;;;;;6116691;23;20202;-71
2022/01/05 01:33:27;;;;;;;2.53;1.60;;;8.00;99.90;;;;;;6117181;23;20197;-71
2022/01/05 01:35:58;;;;;;;3.10;1.80;;;8.00;99.90;;;;;;6120751;23;20659;-68
2022/01/05 01:38:29;;;;;;;2.08;1.98;;;8.00;99.90;;;;;;6113851;23;20227;-67
2022/01/05 01:40:59;;;;;;;2.30;2.10;;;8.00;99.90;;;;;;6120204;23;20891;-70
2022/01/05 01:43:32;;;;;;;2.60;2.40;;;8.00;99.90;;;;;;6115914;23;20188;-69
2022/01/05 01:46:03;;;;;;;3.15;2.90;;;8.00;99.90;;;;;;6116326;23;20180;-67
2022/01/05 01:48:34;;;;;;;2.20;2.08;;;8.00;99.90;;;;;;6118959;23;20854;-67
2022/01/05 01:51:05;;;;;;;2.83;2.28;;;8.10;99.90;;;;;;6118728;23;20188;-66
2022/01/05 01:53:36;;;;;;;2.90;2.70;;;8.00;99.90;;;;;;6113727;23;20184;-68
2022/01/05 01:56:10;;;;;;;3.35;2.92;;;8.00;99.90;;;;;;6114537;23;20283;-70
2022/01/05 01:58:44;;;;;;;3.20;2.95;;;8.00;99.90;;;;;;6116684;23;20198;-65
2022/01/05 02:01:17;;;;;;;3.47;3.17;;;7.90;99.90;;;;;;6118077;23;20184;-66
2022/01/05 02:03:48;;;;;;;3.35;3.05;;;7.80;99.90;;;;;;6114717;23;20183;-68
2022/01/05 02:06:19;;;;;;;3.67;3.38;;;7.80;99.90;;;;;;6118358;23;20266;-67
2022/01/05 02:08:49;;;;;;;3.05;2.80;;;7.80;99.90;;;;;;6116709;23;20476;-68
2022/01/05 02:11:20;;;;;;;3.13;2.80;;;7.80;99.90;;;;;;6116623;23;20188;-68
2022/01/05 02:13:53;;;;;;;2.95;2.75;;;7.80;99.90;;;;;;6116345;23;20254;-67
2022/01/05 02:16:29;;;;;;;2.72;2.50;;;7.80;99.90;;;;;;6116039;23;20208;-68
2022/01/05 02:19:00;;;;;;;2.92;2.72;;;7.80;99.90;;;;;;6117953;23;20194;-67
2022/01/05 02:21:34;;;;;;;3.45;3.25;;;7.70;99.90;;;;;;6117818;23;20194;-69
2022/01/05 02:24:07;;;;;;;3.80;2.70;;;7.80;99.90;;;;;;6118086;23;20184;-70
2022/01/05 02:26:38;;;;;;;3.05;2.85;;;7.70;99.90;;;;;;6126608;23;20200;-71
2022/01/05 02:29:09;;;;;;;3.40;3.10;;;7.80;99.90;;;;;;6148603;23;20268;-70
2022/01/05 02:31:40;;;;;;;6.80;3.17;;;7.80;99.90;;;;;;6144751;23;20534;-69
2022/01/05 02:34:10;;;;;;;5.15;3.70;;;7.80;99.90;;;;;;6147409;23;20279;-69
2022/01/05 02:36:43;;;;;;;3.85;3.50;;;7.70;99.90;;;;;;6148673;23;20210;-68
2022/01/05 02:39:14;;;;;;;3.30;3.00;;;7.70;99.90;;;;;;6146175;23;20187;-68
2022/01/05 02:41:45;;;;;;;4.38;2.75;;;7.80;99.90;;;;;;6148581;23;20183;-71
2022/01/05 02:44:15;;;;;;;3.95;2.53;;;7.80;99.90;;;;;;6148270;23;20719;-68
2022/01/05 02:46:46;;;;;;;3.00;2.80;;;7.70;99.90;;;;;;6149047;23;20190;-66
2022/01/05 02:49:17;;;;;;;4.60;3.08;;;7.70;99.90;;;;;;6147912;23;20265;-67
2022/01/05 02:51:50;;;;;;;3.15;2.85;;;7.70;99.90;;;;;;6144117;23;20261;-67
2022/01/05 02:54:20;;;;;;;1640.45;290.00;;;7.70;99.90;;;;;;6152057;23;20197;-66
2022/01/05 02:56:53;;;;;;;3.70;3.40;;;7.90;99.90;;;;;;6143684;23;20281;-66
2022/01/05 02:59:24;;;;;;;3.60;3.30;;;7.80;99.90;;;;;;6149393;23;20187;-68
2022/01/05 03:01:55;;;;;;;9.93;8.95;;;7.90;99.90;;;;;;6148083;23;20492;-67
2022/01/05 03:04:26;;;;;;;12.50;11.13;;;7.80;99.90;;;;;;6145144;23;20259;-66
2022/01/05 03:06:59;;;;;;;14.85;11.55;;;7.70;99.90;;;;;;6143899;23;20258;-64
2022/01/05 03:09:30;;;;;;;12.60;11.30;;;7.60;99.90;;;;;;6147818;23;20287;-71
2022/01/05 03:12:01;;;;;;;14.73;11.65;;;7.40;99.90;;;;;;6147502;23;20187;-63
2022/01/05 03:14:32;;;;;;;11.63;10.48;;;7.20;99.90;;;;;;6150008;23;20193;-69
2022/01/05 03:17:03;;;;;;;13.73;10.48;;;7.10;99.90;;;;;;6145467;23;20214;-69
2022/01/05 03:19:33;;;;;;;11.52;10.32;;;7.00;99.90;;;;;;6148394;23;20183;-70
2022/01/05 03:22:07;;;;;;;11.63;10.48;;;7.00;99.90;;;;;;6147872;23;20642;-71
2022/01/05 03:24:38;;;;;;;15.95;11.38;;;7.00;99.90;;;;;;6149362;23;20205;-69
2022/01/05 03:27:09;;;;;;;11.75;10.55;;;7.00;99.90;;;;;;6150405;23;20629;-69
2022/01/05 03:29:40;;;;;;;16.58;12.35;;;6.90;99.90;;;;;;6147058;23;20191;-69
2022/01/05 03:32:11;;;;;;;13.55;12.15;;;6.90;99.90;;;;;;6148597;23;20183;-66
2022/01/05 03:34:41;;;;;;;12.93;11.50;;;6.90;99.90;;;;;;6147191;23;20183;-63
2022/01/05 03:37:14;;;;;;;11.00;9.90;;;6.80;99.90;;;;;;6149752;23;20207;-68
2022/01/05 03:39:48;;;;;;;778.03;131.90;;;6.80;99.90;;;;;;6149004;23;20226;-68
2022/01/05 03:42:18;;;;;;;32.40;14.35;;;6.80;99.90;;;;;;6148049;23;20271;-67
2022/01/05 03:44:49;;;;;;;13.98;12.52;;;6.80;99.90;;;;;;6151741;23;20183;-68
2022/01/05 03:47:20;;;;;;;14.25;12.68;;;6.80;99.90;;;;;;6149665;23;20202;-67
2022/01/05 03:49:51;;;;;;;15.55;12.73;;;6.80;99.90;;;;;;6146515;23;20245;-66
2022/01/05 03:52:23;;;;;;;13.73;10.95;;;6.80;99.90;;;;;;6150006;23;20183;-66
2022/01/05 03:54:54;;;;;;;8.90;8.00;;;6.70;99.90;;;;;;6147525;23;20201;-67
2022/01/05 03:57:25;;;;;;;8.90;8.00;;;6.70;99.90;;;;;;6141798;23;20225;-68
2022/01/05 03:59:56;;;;;;;8.73;7.82;;;6.50;99.90;;;;;;6147053;23;20611;-68
2022/01/05 04:02:29;;;;;;;9.07;8.20;;;6.50;99.90;;;;;;6145892;23;20187;-65
2022/01/05 04:05:00;;;;;;;8.50;7.70;;;6.50;99.90;;;;;;6140121;23;20187;-66
2022/01/05 04:07:32;;;;;;;9.65;8.73;;;6.40;99.90;;;;;;6147693;23;20229;-66
2022/01/05 04:10:03;;;;;;;9.95;9.05;;;6.40;99.90;;;;;;6144479;23;20183;-65
2022/01/05 04:12:34;;;;;;;11.55;10.15;;;6.40;99.90;;;;;;6145958;23;20183;-69
2022/01/05 04:15:05;;;;;;;9.77;8.75;;;6.40;99.90;;;;;;6149538;23;20187;-66
2022/01/05 04:17:36;;;;;;;9.32;8.43;;;6.40;99.90;;;;;;6149599;23;20199;-67
2022/01/05 04:20:08;;;;;;;9.50;8.60;;;6.30;99.90;;;;;;6147843;23;20275;-66
2022/01/05 04:22:41;;;;;;;10.38;9.27;;;6.40;99.90;;;;;;6149982;23;20551;-67
2022/01/05 04:25:12;;;;;;;1049.80;187.95;;;6.40;99.90;;;;;;6143987;23;20190;-66
2022/01/05 04:27:44;;;;;;;10.48;9.45;;;6.40;99.90;;;;;;6147353;23;20591;-66
2022/01/05 04:30:15;;;;;;;9.90;9.00;;;6.30;99.90;;;;;;6142319;23;20183;-67
2022/01/05 04:32:45;;;;;;;11.50;10.30;;;6.30;99.90;;;;;;6143600;23;20191;-66
2022/01/05 04:35:36;;;;;;;13.02;10.90;;;6.20;99.90;;;;;;6145221;23;20210;-65
2022/01/05 04:38:09;;;;;;;12.25;10.77;;;6.20;99.90;;;;;;6148590;23;20184;-66
2022/01/05 04:40:40;;;;;;;11.93;10.73;;;6.30;99.90;;;;;;6147367;23;20187;-66
2022/01/05 04:43:11;;;;;;;10.60;9.60;;;6.40;99.90;;;;;;6149586;23;20183;-65
2022/01/05 04:45:42;;;;;;;10.73;9.63;;;6.40;99.90;;;;;;6148506;23;20206;-66
2022/01/05 04:48:13;;;;;;;10.23;9.23;;;6.40;99.90;;;;;;6146323;23;20190;-64
2022/01/05 04:50:44;;;;;;;10.40;9.13;;;6.40;99.90;;;;;;6146207;23;20222;-64
2022/01/05 04:53:16;;;;;;;8.75;7.95;;;6.30;99.90;;;;;;6146636;23;20527;-66
2022/01/05 04:55:47;;;;;;;8.93;7.93;;;6.30;99.90;;;;;;6146192;23;20258;-65
2022/01/05 04:58:18;;;;;;;7.95;7.15;;;6.30;99.90;;;;;;6146461;23;20261;-66
2022/01/05 05:00:49;;;;;;;7.20;6.47;;;6.30;99.90;;;;;;6146167;23;20319;-66
2022/01/05 05:03:20;;;;;;;5.90;5.32;;;6.30;99.90;;;;;;6145266;23;20246;-66
2022/01/05 05:05:51;;;;;;;6.15;5.55;;;6.30;99.90;;;;;;6147351;23;20552;-64
2022/01/05 05:08:28;;;;;;;5.22;4.72;;;6.30;99.90;;;;;;6145710;23;20186;-68
2022/01/05 05:11:02;;;;;;;5.70;5.15;;;6.20;99.90;;;;;;6146434;23;20425;-67
2022/01/05 05:13:32;;;;;;;5.43;4.93;;;6.20;99.90;;;;;;6146502;23;20187;-66
2022/01/05 05:16:03;;;;;;;4.38;3.75;;;6.20;99.90;;;;;;6146001;23;20698;-66
2022/01/05 05:18:34;;;;;;;3.83;3.50;;;6.20;99.90;;;;;;6149515;23;20640;-65
2022/01/05 05:21:06;;;;;;;4.18;3.78;;;6.20;99.90;;;;;;6146691;23;20654;-66
2022/01/05 05:23:38;;;;;;;4.50;4.10;;;6.20;99.90;;;;;;6146456;23;20264;-66
2022/01/05 05:26:09;;;;;;;3.70;3.40;;;6.20;99.90;;;;;;6146438;23;20183;-67
2022/01/05 05:28:40;;;;;;;4.70;4.30;;;6.20;99.90;;;;;;6148011;23;20825;-65
2022/01/05 05:31:11;;;;;;;8.20;4.80;;;6.20;99.90;;;;;;6148734;23;20485;-66
2022/01/05 05:33:42;;;;;;;6.25;5.65;;;6.20;99.90;;;;;;6141954;23;20250;-67
2022/01/05 05:36:13;;;;;;;5.50;5.00;;;6.20;99.90;;;;;;6150799;23;20646;-66
2022/01/05 05:38:45;;;;;;;5.70;5.15;;;6.20;99.90;;;;;;6143631;23;20359;-67
2022/01/05 05:41:16;;;;;;;5.63;5.00;;;6.20;99.90;;;;;;6146778;23;20187;-67
2022/01/05 05:43:48;;;;;;;4.68;3.72;;;6.10;99.90;;;;;;6148326;23;20184;-67
2022/01/05 05:46:19;;;;;;;4.32;3.92;;;6.10;99.90;;;;;;6148411;23;20189;-67
2022/01/05 05:48:50;;;;;;;4.40;3.95;;;6.00;99.90;;;;;;6149337;23;20546;-66
2022/01/05 05:51:21;;;;;;;4.55;4.00;;;6.00;99.90;;;;;;6146729;23;20183;-66
2022/01/05 05:53:54;;;;;;;5.20;4.70;;;6.00;99.90;;;;;;6146502;23;20189;-65
2022/01/05 05:56:25;;;;;;;5.53;4.50;;;6.00;99.90;;;;;;6146307;23;20183;-66
2022/01/05 05:58:56;;;;;;;4.97;4.40;;;6.00;99.90;;;;;;6148555;23;20678;-66
2022/01/05 06:01:29;;;;;;;5.38;4.80;;;6.00;99.90;;;;;;6146902;23;20258;-66
2022/01/05 06:04:00;;;;;;;6.13;4.70;;;6.00;99.90;;;;;;6147572;23;20701;-66
2022/01/05 06:06:31;;;;;;;5.97;5.32;;;5.90;99.90;;;;;;6144346;23;20263;-66
2022/01/05 06:09:03;;;;;;;6.53;5.60;;;6.00;99.90;;;;;;6146503;23;20183;-65
2022/01/05 06:11:34;;;;;;;6.45;5.50;;;6.00;99.90;;;;;;6148871;23;20183;-66
2022/01/05 06:14:05;;;;;;;6.45;5.00;;;6.00;99.90;;;;;;6148398;23;20183;-66
2022/01/05 06:16:35;;;;;;;6.50;5.20;;;6.00;99.90;;;;;;6145097;23;20195;-67
2022/01/05 06:19:06;;;;;;;6.25;5.65;;;6.00;99.90;;;;;;6145062;23;20191;-67
2022/01/05 06:21:37;;;;;;;7.93;5.72;;;5.90;99.90;;;;;;6148319;23;20266;-66
2022/01/05 06:24:10;;;;;;;6.35;5.57;;;6.00;99.90;;;;;;6148389;23;20183;-66
2022/01/05 06:26:41;;;;;;;8.60;5.53;;;5.90;99.90;;;;;;6146421;23;20252;-66
2022/01/05 06:29:13;;;;;;;6.32;5.20;;;6.00;99.90;;;;;;6146580;23;20184;-67
2022/01/05 06:31:43;;;;;;;7.15;5.53;;;6.00;99.90;;;;;;6138938;23;20187;-66
2022/01/05 06:34:14;;;;;;;7.82;6.95;;;6.00;99.90;;;;;;6146608;23;20183;-66
2022/01/05 06:36:45;;;;;;;8.63;7.72;;;6.00;99.90;;;;;;6146089;23;20184;-68
2022/01/05 06:39:18;;;;;;;7.97;7.05;;;5.90;99.90;;;;;;6144387;23;20190;-66
2022/01/05 06:41:49;;;;;;;8.48;6.40;;;5.90;99.90;;;;;;6146481;23;20183;-66
2022/01/05 06:44:20;;;;;;;7.63;5.95;;;5.90;99.90;;;;;;6147936;23;20183;-67
2022/01/05 06:46:51;;;;;;;6.85;5.95;;;5.90;99.90;;;;;;6146352;23;20609;-64
2022/01/05 06:49:23;;;;;;;7.22;6.07;;;5.90;99.90;;;;;;6147044;23;20183;-64
2022/01/05 06:51:54;;;;;;;6.82;6.22;;;6.00;99.90;;;;;;6148149;23;20769;-65
2022/01/05 06:54:27;;;;;;;8.30;5.95;;;6.00;99.90;;;;;;6146176;23;20183;-64
2022/01/05 06:56:58;;;;;;;7.45;6.53;;;6.00;99.90;;;;;;6147851;23;20183;-66
2022/01/05 06:59:29;;;;;;;7.15;6.05;;;5.90;99.90;;;;;;6147922;23;20465;-66
2022/01/05 07:01:59;;;;;;;7.63;6.80;;;5.90;99.90;;;;;;6145959;23;20497;-65
2022/01/05 07:04:30;;;;;;;7.88;6.60;;;5.90;99.90;;;;;;6146856;23;20266;-66
2022/01/05 07:07:02;;;;;;;7.80;6.82;;;6.00;99.90;;;;;;6148567;23;20207;-65
2022/01/05 07:09:35;;;;;;;8.05;6.55;;;6.00;99.90;;;;;;6148204;23;20202;-66
2022/01/05 07:12:07;;;;;;;6.93;6.25;;;6.10;99.90;;;;;;6146647;23;20183;-65
2022/01/05 07:14:38;;;;;;;8.60;6.80;;;6.00;99.90;;;;;;6148007;23;20187;-65
2022/01/05 07:17:09;;;;;;;8.35;6.70;;;6.00;99.90;;;;;;6148718;23;20193;-66
2022/01/05 07:19:40;;;;;;;11.07;7.10;;;6.10;99.90;;;;;;6149106;23;20183;-66
2022/01/05 07:22:10;;;;;;;7.88;7.07;;;6.00;99.90;;;;;;6146031;23;20188;-66
2022/01/05 07:24:43;;;;;;;9.43;7.45;;;6.10;99.90;;;;;;6145976;23;20187;-66
2022/01/05 07:27:14;;;;;;;8.48;6.68;;;6.00;99.90;;;;;;6148261;23;20203;-66
2022/01/05 07:29:45;;;;;;;9.35;7.10;;;5.90;99.90;;;;;;6147598;23;20568;-66
2022/01/05 07:32:16;;;;;;;8.23;7.00;;;5.90;99.90;;;;;;6146017;23;20450;-67
2022/01/05 07:34:47;;;;;;;8.10;6.85;;;6.00;99.90;;;;;;6146271;23;20358;-67
2022/01/05 07:37:17;;;;;;;9.07;8.02;;;6.00;99.90;;;;;;6146214;23;20198;-66
2022/01/05 07:39:50;;;;;;;10.38;7.95;;;6.10;99.90;;;;;;6147198;23;20183;-66
2022/01/05 07:42:21;;;;;;;8.75;7.68;;;6.10;99.90;;;;;;6149897;23;20183;-66
2022/01/05 07:44:53;;;;;;;9.52;7.60;;;6.10;99.90;;;;;;6149514;23;20286;-66
2022/01/05 07:47:24;;;;;;;11.10;8.07;;;6.20;99.90;;;;;;6148308;23;20207;-66
2022/01/05 07:49:55;;;;;;;11.57;8.90;;;6.20;99.90;;;;;;6146473;23;20209;-66
2022/01/05 07:52:25;;;;;;;10.80;8.85;;;6.10;99.90;;;;;;6149952;23;20183;-66
2022/01/05 07:54:59;;;;;;;15.82;11.38;;;6.10;99.90;;;;;;6149278;23;20630;-66
2022/01/05 07:57:30;;;;;;;19.42;13.30;;;6.10;99.90;;;;;;6147537;23;20568;-66
2022/01/05 08:00:01;;;;;;;18.20;12.25;;;6.00;99.90;;;;;;6147689;23;20262;-67
2022/01/05 08:02:32;;;;;;;14.75;11.93;;;6.00;99.90;;;;;;6147759;23;20257;-66
2022/01/05 08:05:03;;;;;;;12.43;9.52;;;5.80;99.90;;;;;;6146272;23;20329;-67
2022/01/05 08:07:33;;;;;;;12.63;9.77;;;5.80;99.90;;;;;;6149299;23;20187;-66
2022/01/05 08:10:08;;;;;;;12.63;9.98;;;5.80;99.90;;;;;;6149511;23;20264;-66
2022/01/05 08:12:41;;;;;;;13.98;9.75;;;5.80;99.90;;;;;;6150229;23;20270;-67
2022/01/05 08:15:12;;;;;;;13.63;10.27;;;5.80;99.90;;;;;;6147688;23;20183;-68
2022/01/05 08:17:44;;;;;;;12.00;9.93;;;5.80;99.90;;;;;;6149786;23;20187;-67
2022/01/05 08:20:15;;;;;;;13.73;10.65;;;5.90;99.90;;;;;;6148396;23;20189;-66
2022/01/05 08:22:47;;;;;;;13.52;10.15;;;5.90;99.90;;;;;;6147638;23;20193;-67
2022/01/05 08:25:21;;;;;;;13.50;9.30;;;5.90;99.90;;;;;;6147425;23;20194;-67
2022/01/05 08:27:52;;;;;;;14.18;10.18;;;5.90;99.90;;;;;;6149538;23;20203;-66
2022/01/05 08:30:25;;;;;;;13.63;9.82;;;6.00;99.90;;;;;;6149153;23;20494;-66
2022/01/05 08:32:56;;;;;;;13.52;10.55;;;6.00;99.90;;;;;;6149626;23;20266;-67
2022/01/05 08:35:27;;;;;;;13.10;10.10;;;6.00;99.90;;;;;;6146318;23;20182;-65
2022/01/05 08:37:59;;;;;;;14.60;11.50;;;6.00;99.90;;;;;;6147704;23;20187;-67
2022/01/05 08:40:32;;;;;;;14.45;10.95;;;6.00;99.90;;;;;;6147137;23;20493;-66
2022/01/05 08:43:05;;;;;;;14.38;10.52;;;6.00;99.90;;;;;;6151742;23;20233;-66
2022/01/05 08:45:37;;;;;;;15.05;11.27;;;6.00;99.90;;;;;;6148818;23;20500;-65
2022/01/05 08:48:08;;;;;;;13.25;10.10;;;6.10;99.90;;;;;;6147803;23;20262;-66
2022/01/05 08:50:39;;;;;;;14.20;10.80;;;6.00;99.90;;;;;;6142297;23;20554;-66
2022/01/05 08:53:11;;;;;;;15.73;11.48;;;6.10;99.90;;;;;;6143869;23;20266;-66
2022/01/05 08:55:47;;;;;;;15.20;10.88;;;6.10;99.90;;;;;;6149356;23;20183;-66
2022/01/05 08:58:19;;;;;;;13.63;10.57;;;6.10;99.90;;;;;;6146917;23;20265;-66
2022/01/05 09:00:50;;;;;;;13.05;10.20;;;6.00;99.90;;;;;;6147408;23;20193;-66
2022/01/05 09:03:21;;;;;;;14.05;11.05;;;6.00;99.90;;;;;;6148219;23;20206;-66
2022/01/05 09:05:52;;;;;;;14.65;10.95;;;6.00;99.90;;;;;;6147156;23;20541;-66
2022/01/05 09:08:23;;;;;;;14.32;10.73;;;6.10;99.90;;;;;;6147838;23;20198;-66
2022/01/05 09:10:56;;;;;;;15.18;11.52;;;6.20;99.90;;;;;;6149026;23;20656;-67
2022/01/05 09:13:26;;;;;;;16.20;11.38;;;6.10;99.90;;;;;;6148770;23;20189;-67
2022/01/05 09:15:57;;;;;;;14.38;11.77;;;6.10;99.90;;;;;;6148898;23;20183;-67
2022/01/05 09:18:28;;;;;;;16.42;12.30;;;6.20;99.90;;;;;;6147609;23;20187;-67
2022/01/05 09:20:59;;;;;;;15.02;11.18;;;6.20;99.90;;;;;;6148700;23;20183;-66
2022/01/05 09:23:30;;;;;;;15.80;11.73;;;6.20;99.90;;;;;;6148410;23;20206;-64
2022/01/05 09:26:03;;;;;;;17.70;12.88;;;6.30;99.90;;;;;;6148875;23;20526;-67
2022/01/05 09:28:34;;;;;;;18.17;12.95;;;6.20;99.90;;;;;;6148848;23;20190;-66
2022/01/05 09:31:05;;;;;;;18.13;13.55;;;6.30;99.90;;;;;;6147020;23;20221;-65
2022/01/05 09:33:35;;;;;;;15.32;12.45;;;6.30;99.90;;;;;;6147791;23;20187;-65
2022/01/05 09:36:13;;;;;;;16.95;12.75;;;6.40;99.90;;;;;;6151117;23;20187;-66
2022/01/05 09:44:19;;;;;;;19.05;13.23;;;6.40;99.90;;;;;;6148676;23;20195;-65
2022/01/05 09:47:09;;;;;;;22.95;13.38;;;6.40;99.90;;;;;;6146446;23;20563;-66
2022/01/05 09:49:41;;;;;;;15.95;12.30;;;6.40;99.90;;;;;;6145304;23;20651;-66
2022/01/05 09:52:13;;;;;;;16.67;11.70;;;6.30;99.90;;;;;;6144501;23;20201;-65
2022/01/05 09:54:44;;;;;;;17.10;12.45;;;6.20;99.90;;;;;;6145987;23;20190;-66
2022/01/05 09:57:19;;;;;;;17.70;12.30;;;6.20;99.90;;;;;;6147144;23;20218;-65
2022/01/05 09:59:50;;;;;;;18.13;13.20;;;6.20;99.90;;;;;;6146323;23;20206;-66
2022/01/05 10:02:21;;;;;;;15.80;12.07;;;6.40;99.90;;;;;;6146457;23;20183;-66
2022/01/05 10:04:53;;;;;;;17.75;13.15;;;6.40;99.90;;;;;;6146837;23;20188;-66
2022/01/05 10:07:24;;;;;;;18.63;13.93;;;6.40;99.90;;;;;;6150557;23;20505;-66
2022/01/05 10:09:55;;;;;;;18.20;12.77;;;6.30;99.90;;;;;;6145994;23;20263;-66
2022/01/05 10:12:27;;;;;;;15.48;12.27;;;6.30;99.90;;;;;;6148743;23;20206;-65
2022/01/05 10:14:58;;;;;;;18.17;13.00;;;6.30;99.90;;;;;;6148157;23;20183;-66
2022/01/05 10:17:31;;;;;;;18.65;12.65;;;6.30;99.90;;;;;;6146460;23;20189;-66
2022/01/05 10:20:05;;;;;;;17.63;12.32;;;6.30;99.90;;;;;;6145115;23;20234;-66
2022/01/05 10:22:38;;;;;;;14.65;11.88;;;6.40;99.90;;;;;;6144443;23;20187;-66
2022/01/05 10:25:15;;;;;;;17.45;12.30;;;6.30;99.90;;;;;;6146427;23;20624;-65
2022/01/05 10:27:57;;;;;;;17.10;11.00;;;6.40;99.90;;;;;;6150212;23;20556;-66
2022/01/05 10:30:39;;;;;;;16.30;11.90;;;6.30;99.90;;;;;;6146210;23;20236;-64
2022/01/05 10:33:10;;;;;;;14.73;11.05;;;6.30;99.90;;;;;;6148806;23;20193;-66
2022/01/05 10:35:41;;;;;;;11.90;9.55;;;6.30;99.90;;;;;;6148013;23;20184;-66
2022/01/05 10:38:15;;;;;;;9.88;8.40;;;6.40;99.90;;;;;;6148272;23;20197;-66
2022/01/05 10:40:46;;;;;;;9.57;7.53;;;6.40;99.90;;;;;;6147963;23;20202;-66
2022/01/05 10:43:19;;;;;;;7.28;5.55;;;6.30;99.90;;;;;;6150259;23;20183;-65
2022/01/05 10:45:51;;;;;;;8.05;6.10;;;6.40;99.90;;;;;;6148054;23;20218;-65
2022/01/05 10:48:25;;;;;;;6.55;5.55;;;6.40;99.90;;;;;;6147168;23;20182;-66
2022/01/05 10:51:05;;;;;;;8.48;6.72;;;6.40;99.90;;;;;;6144304;23;20205;-66
2022/01/05 10:53:36;;;;;;;9.20;6.55;;;6.50;99.90;;;;;;6136070;23;20191;-66
2022/01/05 10:56:07;;;;;;;10.00;8.27;;;6.40;99.90;;;;;;6151034;23;20551;-66
2022/01/05 10:58:46;;;;;;;8.70;6.32;;;6.50;99.90;;;;;;6146283;23;20691;-65
2022/01/05 11:01:29;;;;;;;8.93;6.55;;;6.50;99.90;;;;;;6148188;23;20203;-64
2022/01/05 11:04:00;;;;;;;7.57;6.57;;;6.50;99.90;;;;;;6147031;23;20183;-65
2022/01/05 11:06:31;;;;;;;8.52;6.53;;;6.60;99.90;;;;;;6148858;23;20183;-65
2022/01/05 11:09:04;;;;;;;7.80;6.30;;;6.60;99.90;;;;;;6148155;23;20187;-66
2022/01/05 11:11:39;;;;;;;9.65;5.93;;;6.60;99.90;;;;;;6148186;23;20191;-66
2022/01/05 11:14:14;;;;;;;8.57;6.82;;;6.60;99.90;;;;;;6145201;23;20187;-66
2022/01/05 11:16:46;;;;;;;7.28;5.85;;;6.60;99.90;;;;;;6148506;23;20183;-66
2022/01/05 11:19:19;;;;;;;8.90;5.60;;;6.60;99.90;;;;;;6148937;23;20258;-66
2022/01/05 11:22:06;;;;;;;8.70;7.63;;;6.60;99.90;;;;;;6150628;23;20198;-66
2022/01/05 11:24:40;;;;;;;9.43;6.53;;;6.60;99.90;;;;;;6150002;23;20187;-66
2022/01/05 11:27:14;;;;;;;9.15;6.38;;;6.60;99.90;;;;;;6148723;23;20209;-65
2022/01/05 11:29:48;;;;;;;7.55;6.25;;;6.60;99.90;;;;;;6143737;23;20179;-66
2022/01/05 11:32:23;;;;;;;9.60;6.65;;;6.60;99.90;;;;;;6142379;23;20189;-65
2022/01/05 11:34:55;;;;;;;7.85;6.00;;;6.60;99.90;;;;;;6148774;23;20853;-66
2022/01/05 11:37:26;;;;;;;8.95;7.30;;;6.60;99.90;;;;;;6152135;23;20345;-66
2022/01/05 11:39:58;;;;;;;9.45;6.90;;;6.80;99.90;;;;;;6149346;23;20199;-66
2022/01/05 11:42:33;;;;;;;9.15;7.10;;;6.70;99.90;;;;;;6150001;23;20715;-66
2022/01/05 11:45:07;;;;;;;7.15;5.97;;;6.60;99.90;;;;;;6147648;23;20187;-67
2022/01/05 11:47:39;;;;;;;9.63;6.55;;;6.50;99.90;;;;;;6148084;23;20191;-66
2022/01/05 11:50:28;;;;;;;7.30;5.78;;;6.40;99.90;;;;;;6146893;23;20263;-66
2022/01/05 11:53:01;;;;;;;9.80;7.05;;;6.40;99.90;;;;;;6150115;23;20257;-66
2022/01/05 11:55:34;;;;;;;9.88;6.55;;;6.50;99.90;;;;;;6147857;23;20187;-66
2022/01/05 11:58:18;;;;;;;8.98;6.93;;;6.50;99.90;;;;;;6151249;23;20183;-67
2022/01/05 12:01:33;;;;;;;9.98;6.68;;;6.50;99.90;;;;;;6147379;23;20214;-67
2022/01/05 12:04:11;;;;;;;7.45;6.05;;;6.60;99.90;;;;;;6146372;23;20183;-67
2022/01/05 12:07:09;;;;;;;10.43;6.78;;;6.60;99.90;;;;;;6152306;23;20190;-67
2022/01/05 12:09:42;;;;;;;6.90;5.68;;;6.60;99.90;;;;;;6147301;23;20187;-67
2022/01/05 12:12:32;;;;;;;8.65;6.97;;;6.60;99.90;;;;;;6151450;23;20259;-67
2022/01/05 12:15:06;;;;;;;12.15;7.25;;;6.60;99.90;;;;;;6148185;23;20198;-68
2022/01/05 12:17:39;;;;;;;7.93;6.20;;;6.60;99.90;;;;;;6150007;23;20346;-68
2022/01/05 12:20:14;;;;;;;9.30;6.70;;;6.50;99.90;;;;;;6148919;23;20199;-68
2022/01/05 12:22:45;;;;;;;12.30;7.10;;;6.50;99.90;;;;;;6149803;23;20229;-68
2022/01/05 12:25:20;;;;;;;7.05;5.57;;;6.50;99.90;;;;;;6147283;23;20190;-68
2022/01/05 12:28:08;;;;;;;6.80;5.35;;;6.50;99.90;;;;;;6150039;23;20206;-67
2022/01/05 12:30:42;;;;;;;7.10;6.05;;;6.50;99.90;;;;;;6150179;23;20504;-68
2022/01/05 12:33:21;;;;;;;7.00;6.03;;;6.60;99.90;;;;;;6149640;23;20206;-68
2022/01/05 12:35:55;;;;;;;7.32;6.50;;;6.50;99.90;;;;;;6149993;23;20183;-68
2022/01/05 12:38:46;;;;;;;9.73;6.90;;;6.50;99.90;;;;;;6147990;23;20205;-67
2022/01/05 12:41:32;;;;;;;9.07;6.85;;;6.60;99.90;;;;;;6148756;23;20203;-67
2022/01/05 12:44:25;;;;;;;8.07;7.15;;;6.60;99.90;;;;;;6149770;23;20182;-67
2022/01/05 12:46:57;;;;;;;8.88;7.35;;;6.70;99.90;;;;;;6147779;23;20191;-68
2022/01/05 12:49:32;;;;;;;12.52;8.60;;;6.70;99.90;;;;;;6143958;23;20187;-68
2022/01/05 12:52:09;;;;;;;10.65;7.85;;;6.70;99.90;;;;;;6149911;23;20213;-67
2022/01/05 12:54:45;;;;;;;14.82;9.05;;;6.70;99.90;;;;;;6147311;23;20738;-67
2022/01/05 12:57:21;;;;;;;11.68;8.30;;;6.70;99.90;;;;;;6147871;23;20292;-66
2022/01/05 12:59:54;;;;;;;11.60;9.63;;;6.70;99.90;;;;;;6147434;23;20262;-67
2022/01/05 13:02:26;;;;;;;14.15;10.10;;;6.70;99.90;;;;;;6149768;23;20203;-67
2022/01/05 13:05:03;;;;;;;13.25;9.68;;;6.70;99.90;;;;;;6148189;23;20266;-67
2022/01/05 13:07:39;;;;;;;13.40;10.52;;;6.70;99.90;;;;;;6147509;23;20670;-68
2022/01/05 13:10:13;;;;;;;11.93;10.57;;;6.70;99.90;;;;;;6147906;23;20262;-68
2022/01/05 13:12:44;;;;;;;14.27;10.27;;;6.70;99.90;;;;;;6147613;23;20536;-68
2022/01/05 13:15:17;;;;;;;13.07;10.27;;;6.60;99.90;;;;;;6149363;23;20270;-68
2022/01/05 13:17:48;;;;;;;14.10;8.82;;;6.60;99.90;;;;;;6147584;23;20183;-68
2022/01/05 13:20:21;;;;;;;11.05;9.93;;;6.60;99.90;;;;;;6146047;23;20652;-67
2022/01/05 13:22:52;;;;;;;11.25;9.52;;;6.60;99.90;;;;;;6149560;23;20704;-68
2022/01/05 13:25:25;;;;;;;14.13;9.77;;;6.60;99.90;;;;;;6147203;23;20183;-68